Terminal Aerodrome Forecast
Issued by NWS

Home | Current Version | Previous Version | Text Only | Print | Product List | Glossary On
Versions: 1 2 3 4 5 6 7 8 9 10 11 12 13 14 15
000
FTUS41 KGYX 210800 AAA
TAFAUG
TAF AMD
KAUG 210840Z 2109/2206 19004KT P6SM SCT120
     FM211500 20010G17KT P6SM SCT250
     FM212300 19005KT P6SM BKN250=

USA.gov is the U.S. government's official web portal to all federal, state and local government web resources and services.